Time;durP1;ratioP1;P1;durP2;ratioP2;P2;SDS_P1;SDS_P2;PMS_P1;PMS_P2;Temp;Humidity;BMP_temperature;BMP_pressure;BME280_temperature;BME280_humidity;BME280_pressure;Samples;Min_cycle;Max_cycle;Signal;HPM_P1;HPM_P2
2021/12/27 00:01:29;;;;;;;;;;;;;;;;;;5324888;28;20788;-66
2021/12/27 00:04:00;;;;;;;;;;;;;;;;;;5324767;28;19945;-67
2021/12/27 00:06:31;;;;;;;;;;;;;;;;;;5325446;28;20315;-66
2021/12/27 00:09:02;;;;;;;;;;;;;;;;;;5321818;28;20077;-66
2021/12/27 00:11:33;;;;;;;;;;;;;;;;;;5325165;28;20400;-66
2021/12/27 00:14:05;;;;;;;;;;;;;;;;;;5324415;28;20366;-66
2021/12/27 00:16:36;;;;;;;;;;;;;;;;;;5324323;28;20346;-67
2021/12/27 00:19:08;;;;;;;;;;;;;;;;;;5324677;28;19904;-67
2021/12/27 00:21:39;;;;;;;;;;;;;;;;;;5324438;28;19904;-67
2021/12/27 00:24:10;;;;;;;;;;;;;;;;;;5324136;28;19910;-67
2021/12/27 00:26:44;;;;;;;;;;;;;;;;;;5324618;28;19910;-67
2021/12/27 00:29:15;;;;;;;;;;;;;;;;;;5324879;28;19911;-67
2021/12/27 00:31:46;;;;;;;;;;;;;;;;;;5323993;28;19903;-67
2021/12/27 00:34:18;;;;;;;;;;;;;;;;;;5324746;28;19964;-68
2021/12/27 00:36:49;;;;;;;;;;;;;;;;;;5323247;28;19950;-67
2021/12/27 00:39:20;;;;;;;;;;;;;;;;;;5324635;28;19906;-67
2021/12/27 00:41:51;;;;;;;;;;;;;;;;;;5324217;28;19904;-67
2021/12/27 00:44:22;;;;;;;;;;;;;;;;;;5324017;28;19900;-67
2021/12/27 00:46:53;;;;;;;;;;;;;;;;;;5323945;28;19951;-68
2021/12/27 00:49:24;;;;;;;;;;;;;;;;;;5324619;28;19904;-67
2021/12/27 00:51:55;;;;;;;;;;;;;;;;;;5323411;28;19900;-67
2021/12/27 00:54:26;;;;;;;;;;;;;;;;;;5324610;28;19911;-67
2021/12/27 00:56:57;;;;;;;;;;;;;;;;;;5323951;28;19908;-67
2021/12/27 00:59:28;;;;;;;;;;;;;;;;;;5323714;28;19952;-67
2021/12/27 01:02:00;;;;;;;;;;;;;;;;;;5323858;28;19911;-67
2021/12/27 01:04:31;;;;;;;;;;;;;;;;;;5323788;28;19911;-68
2021/12/27 01:07:02;;;;;;;;;;;;;;;;;;5323869;28;19911;-67
2021/12/27 01:09:54;;;;;;;;;;;;;;;;;;5324379;28;19996;-67
2021/12/27 01:12:34;;;;;;;;;;;;;;;;;;5323871;28;19919;-67
2021/12/27 01:15:33;;;;;;;;;;;;;;;;;;5323917;28;20251;-68
2021/12/27 01:18:02;;;;;;;;;;;;;;;;;;5323713;28;19908;-68
2021/12/27 01:20:35;;;;;;;;;;;;;;;;;;5323609;28;19904;-67
2021/12/27 01:23:06;;;;;;;;;;;;;;;;;;5323924;28;20315;-67
2021/12/27 01:25:37;;;;;;;;;;;;;;;;;;5322905;28;20049;-68
2021/12/27 01:28:08;;;;;;;;;;;;;;;;;;5324240;28;20456;-67
2021/12/27 01:30:47;;;;;;;;;;;;;;;;;;5323734;28;19907;-68
2021/12/27 01:33:18;;;;;;;;;;;;;;;;;;5323677;28;19904;-67
2021/12/27 01:35:49;;;;;;;;;;;;;;;;;;5323799;28;19949;-68
2021/12/27 01:38:20;;;;;;;;;;;;;;;;;;5324257;28;19907;-67
2021/12/27 01:40:51;;;;;;;;;;;;;;;;;;5322690;28;19907;-67
2021/12/27 01:43:22;;;;;;;;;;;;;;;;;;5324292;28;20362;-67
2021/12/27 01:45:54;;;;;;;;;;;;;;;;;;5323534;28;19903;-67
2021/12/27 01:48:25;;;;;;;;;;;;;;;;;;5323117;28;19916;-67
2021/12/27 01:50:56;;;;;;;;;;;;;;;;;;5327223;28;19965;-67
2021/12/27 01:53:27;;;;;;;;;;;;;;;;;;5327773;28;19914;-67
2021/12/27 01:55:58;;;;;;;;;;;;;;;;;;5326645;28;19949;-67
2021/12/27 01:58:29;;;;;;;;;;;;;;;;;;5327977;28;19907;-67
2021/12/27 02:01:00;;;;;;;;;;;;;;;;;;5326387;28;20283;-67
2021/12/27 02:03:32;;;;;;;;;;;;;;;;;;5327890;28;19900;-67
2021/12/27 02:06:05;;;;;;;;;;;;;;;;;;5327097;28;19986;-67
2021/12/27 02:08:36;;;;;;;;;;;;;;;;;;5326881;28;20358;-67
2021/12/27 02:11:07;;;;;;;;;;;;;;;;;;5327228;28;19907;-67
2021/12/27 02:13:42;;;;;;;;;;;;;;;;;;5326955;28;19912;-67
2021/12/27 02:16:14;;;;;;;;;;;;;;;;;;5326503;28;19938;-67
2021/12/27 02:18:45;;;;;;;;;;;;;;;;;;5326803;28;20354;-66
2021/12/27 02:21:16;;;;;;;;;;;;;;;;;;5327530;28;19956;-67
2021/12/27 02:23:49;;;;;;;;;;;;;;;;;;5325999;28;20446;-67
2021/12/27 02:26:20;;;;;;;;;;;;;;;;;;5327222;28;19903;-67
2021/12/27 02:28:51;;;;;;;;;;;;;;;;;;5326130;28;19904;-67
2021/12/27 02:31:22;;;;;;;;;;;;;;;;;;5327482;28;19904;-67
2021/12/27 02:33:53;;;;;;;;;;;;;;;;;;5326706;28;19915;-67
2021/12/27 02:36:24;;;;;;;;;;;;;;;;;;5326411;28;19964;-67
2021/12/27 02:38:56;;;;;;;;;;;;;;;;;;5326497;28;19911;-67
2021/12/27 02:41:27;;;;;;;;;;;;;;;;;;5327050;28;20003;-66
2021/12/27 02:43:58;;;;;;;;;;;;;;;;;;5325684;28;19914;-67
2021/12/27 02:46:29;;;;;;;;;;;;;;;;;;5326706;28;20373;-66
2021/12/27 02:49:00;;;;;;;;;;;;;;;;;;5326319;28;19911;-66
2021/12/27 02:51:31;;;;;;;;;;;;;;;;;;5326037;28;19998;-66
2021/12/27 02:54:02;;;;;;;;;;;;;;;;;;5326032;28;19935;-67
2021/12/27 02:56:35;;;;;;;;;;;;;;;;;;5326861;28;19904;-67
2021/12/27 02:59:06;;;;;;;;;;;;;;;;;;5325450;28;20384;-67
2021/12/27 03:01:37;;;;;;;;;;;;;;;;;;5325892;28;19957;-67
2021/12/27 03:04:08;;;;;;;;;;;;;;;;;;5325806;28;20354;-66
2021/12/27 03:06:39;;;;;;;;;;;;;;;;;;5325872;28;19977;-67
2021/12/27 03:09:10;;;;;;;;;;;;;;;;;;5326357;28;20286;-67
2021/12/27 03:11:41;;;;;;;;;;;;;;;;;;5324951;28;19918;-67
2021/12/27 03:14:12;;;;;;;;;;;;;;;;;;5326300;28;19915;-66
2021/12/27 03:16:43;;;;;;;;;;;;;;;;;;5325704;28;20398;-66
2021/12/27 03:19:14;;;;;;;;;;;;;;;;;;5325276;28;19919;-66
2021/12/27 03:21:46;;;;;;;;;;;;;;;;;;5325668;28;19904;-66
2021/12/27 03:24:17;;;;;;;;;;;;;;;;;;5326074;28;19903;-66
2021/12/27 03:26:48;;;;;;;;;;;;;;;;;;5324728;28;19903;-66
2021/12/27 03:29:19;;;;;;;;;;;;;;;;;;5325953;28;19907;-67
2021/12/27 03:31:54;;;;;;;;;;;;;;;;;;5325549;28;19904;-66
2021/12/27 03:34:25;;;;;;;;;;;;;;;;;;5325018;28;19972;-66
2021/12/27 03:36:56;;;;;;;;;;;;;;;;;;5325311;28;20332;-66
2021/12/27 03:39:27;;;;;;;;;;;;;;;;;;5324888;28;19908;-66
2021/12/27 03:41:58;;;;;;;;;;;;;;;;;;5324716;28;20288;-66
2021/12/27 03:44:29;;;;;;;;;;;;;;;;;;5325934;28;19950;-66
2021/12/27 03:47:00;;;;;;;;;;;;;;;;;;5324202;28;20377;-66
2021/12/27 03:49:32;;;;;;;;;;;;;;;;;;5325734;28;19910;-66
2021/12/27 03:52:03;;;;;;;;;;;;;;;;;;5325035;28;19959;-66
2021/12/27 03:54:34;;;;;;;;;;;;;;;;;;5324599;28;20373;-66
2021/12/27 03:57:05;;;;;;;;;;;;;;;;;;5324993;28;19910;-67
2021/12/27 03:59:49;;;;;;;;;;;;;;;;;;5325209;28;19911;-66
2021/12/27 04:02:20;;;;;;;;;;;;;;;;;;5324714;28;20339;-66
2021/12/27 04:04:51;;;;;;;;;;;;;;;;;;5324740;28;19931;-66
2021/12/27 04:07:27;;;;;;;;;;;;;;;;;;5324716;28;19915;-66
2021/12/27 04:09:58;;;;;;;;;;;;;;;;;;5324707;28;19903;-66
2021/12/27 04:12:29;;;;;;;;;;;;;;;;;;5324434;28;20343;-66
2021/12/27 04:15:00;;;;;;;;;;;;;;;;;;5323595;28;19911;-66
2021/12/27 04:17:31;;;;;;;;;;;;;;;;;;5325005;28;19904;-67
2021/12/27 04:20:02;;;;;;;;;;;;;;;;;;5324627;28;19969;-66
2021/12/27 04:22:33;;;;;;;;;;;;;;;;;;5324254;28;19907;-67
2021/12/27 04:25:04;;;;;;;;;;;;;;;;;;5324386;28;19899;-67
2021/12/27 04:27:35;;;;;;;;;;;;;;;;;;5324840;28;19903;-67
2021/12/27 04:30:06;;;;;;;;;;;;;;;;;;5323513;28;19904;-67
2021/12/27 04:32:38;;;;;;;;;;;;;;;;;;5324238;28;20394;-66
2021/12/27 04:35:09;;;;;;;;;;;;;;;;;;5324902;28;20347;-67
2021/12/27 04:37:40;;;;;;;;;;;;;;;;;;5323520;28;20356;-67
2021/12/27 04:40:11;;;;;;;;;;;;;;;;;;5324532;28;20003;-67
2021/12/27 04:42:42;;;;;;;;;;;;;;;;;;5323503;28;20258;-67
2021/12/27 04:45:14;;;;;;;;;;;;;;;;;;5324634;28;19982;-67
2021/12/27 04:47:45;;;;;;;;;;;;;;;;;;5323904;28;19915;-66
2021/12/27 04:50:16;;;;;;;;;;;;;;;;;;5323896;28;20259;-66
2021/12/27 04:52:48;;;;;;;;;;;;;;;;;;5323933;28;19935;-67
2021/12/27 04:55:19;;;;;;;;;;;;;;;;;;5324476;28;19911;-67
2021/12/27 04:57:50;;;;;;;;;;;;;;;;;;5323346;28;19904;-67
2021/12/27 05:00:21;;;;;;;;;;;;;;;;;;5324606;28;19927;-66
2021/12/27 05:02:52;;;;;;;;;;;;;;;;;;5323913;28;19904;-67
2021/12/27 05:05:23;;;;;;;;;;;;;;;;;;5323737;28;20409;-67
2021/12/27 05:07:54;;;;;;;;;;;;;;;;;;5323949;28;19910;-66
2021/12/27 05:10:25;;;;;;;;;;;;;;;;;;5324406;28;19956;-69
2021/12/27 05:12:56;;;;;;;;;;;;;;;;;;5323041;28;19911;-67
2021/12/27 05:15:27;;;;;;;;;;;;;;;;;;5324265;28;19911;-67
2021/12/27 05:17:58;;;;;;;;;;;;;;;;;;5322813;28;19969;-67
2021/12/27 05:20:30;;;;;;;;;;;;;;;;;;5324602;28;19919;-67
2021/12/27 05:23:01;;;;;;;;;;;;;;;;;;5324570;28;20366;-67
2021/12/27 05:25:32;;;;;;;;;;;;;;;;;;5327884;28;19904;-67
2021/12/27 05:28:03;;;;;;;;;;;;;;;;;;5327764;28;20362;-67
2021/12/27 05:30:34;;;;;;;;;;;;;;;;;;5328606;28;19908;-67
2021/12/27 05:33:05;;;;;;;;;;;;;;;;;;5327500;28;19903;-67
2021/12/27 05:35:36;;;;;;;;;;;;;;;;;;5328026;28;19915;-67
2021/12/27 05:38:07;;;;;;;;;;;;;;;;;;5328055;28;19955;-67
2021/12/27 05:40:38;;;;;;;;;;;;;;;;;;5326777;28;19904;-67
2021/12/27 05:43:09;;;;;;;;;;;;;;;;;;5328041;28;19911;-66
2021/12/27 05:45:40;;;;;;;;;;;;;;;;;;5327698;28;20335;-66
2021/12/27 05:48:11;;;;;;;;;;;;;;;;;;5327193;28;19923;-66
2021/12/27 05:50:43;;;;;;;;;;;;;;;;;;5327520;28;20369;-66
2021/12/27 05:53:14;;;;;;;;;;;;;;;;;;5327142;28;19904;-66
2021/12/27 05:55:45;;;;;;;;;;;;;;;;;;5327448;28;19907;-66
2021/12/27 05:58:16;;;;;;;;;;;;;;;;;;5327956;28;19904;-67
2021/12/27 06:00:48;;;;;;;;;;;;;;;;;;5326468;28;19904;-66
2021/12/27 06:03:20;;;;;;;;;;;;;;;;;;5327737;28;19903;-66
2021/12/27 06:05:51;;;;;;;;;;;;;;;;;;5327135;28;19907;-66
2021/12/27 06:08:22;;;;;;;;;;;;;;;;;;5326826;28;20373;-66
2021/12/27 06:10:53;;;;;;;;;;;;;;;;;;5327208;28;19964;-66
2021/12/27 06:13:24;;;;;;;;;;;;;;;;;;5327636;28;19910;-66
2021/12/27 06:15:55;;;;;;;;;;;;;;;;;;5326061;28;20420;-66
2021/12/27 06:18:27;;;;;;;;;;;;;;;;;;5327469;28;19956;-66
2021/12/27 06:20:58;;;;;;;;;;;;;;;;;;5326442;28;19907;-67
2021/12/27 06:23:29;;;;;;;;;;;;;;;;;;5327370;28;19910;-67
2021/12/27 06:26:00;;;;;;;;;;;;;;;;;;5326808;28;19957;-66
2021/12/27 06:28:34;;;;;;;;;;;;;;;;;;5326264;28;20410;-66
2021/12/27 06:31:05;;;;;;;;;;;;;;;;;;5326473;28;19903;-66
2021/12/27 06:33:36;;;;;;;;;;;;;;;;;;5327244;28;19908;-67
2021/12/27 06:36:07;;;;;;;;;;;;;;;;;;5325613;28;19903;-67
2021/12/27 06:38:38;;;;;;;;;;;;;;;;;;5326525;28;19931;-67
2021/12/27 06:41:09;;;;;;;;;;;;;;;;;;5326895;28;19957;-67
2021/12/27 06:43:40;;;;;;;;;;;;;;;;;;5325733;28;20074;-67
2021/12/27 06:46:11;;;;;;;;;;;;;;;;;;5327080;28;20362;-66
2021/12/27 06:48:42;;;;;;;;;;;;;;;;;;5326183;28;19915;-67
2021/12/27 06:51:13;;;;;;;;;;;;;;;;;;5325987;28;19954;-67
2021/12/27 06:53:44;;;;;;;;;;;;;;;;;;5326044;28;19908;-67
2021/12/27 06:56:15;;;;;;;;;;;;;;;;;;5325795;28;20316;-67
2021/12/27 06:58:47;;;;;;;;;;;;;;;;;;5326427;28;19946;-67
2021/12/27 07:01:18;;;;;;;;;;;;;;;;;;5326591;28;20041;-67
2021/12/27 07:03:49;;;;;;;;;;;;;;;;;;5325134;28;19907;-67
2021/12/27 07:06:20;;;;;;;;;;;;;;;;;;5326477;28;20373;-67
2021/12/27 07:08:51;;;;;;;;;;;;;;;;;;5326077;28;19900;-67
2021/12/27 07:11:22;;;;;;;;;;;;;;;;;;5325592;28;19904;-67
2021/12/27 07:13:53;;;;;;;;;;;;;;;;;;5325734;28;19958;-67
2021/12/27 07:16:26;;;;;;;;;;;;;;;;;;5326188;28;19904;-67
2021/12/27 07:18:57;;;;;;;;;;;;;;;;;;5324979;28;19919;-67
2021/12/27 07:21:29;;;;;;;;;;;;;;;;;;5326285;28;20286;-67
2021/12/27 07:24:00;;;;;;;;;;;;;;;;;;5325601;28;19911;-67
2021/12/27 07:26:31;;;;;;;;;;;;;;;;;;5325063;28;19948;-67
2021/12/27 07:29:02;;;;;;;;;;;;;;;;;;5325398;28;19903;-68
2021/12/27 07:31:33;;;;;;;;;;;;;;;;;;5325306;28;19983;-67
2021/12/27 07:34:04;;;;;;;;;;;;;;;;;;5325023;28;20010;-67
2021/12/27 07:36:35;;;;;;;;;;;;;;;;;;5325839;28;19903;-67
2021/12/27 07:39:06;;;;;;;;;;;;;;;;;;5324184;28;20013;-67
2021/12/27 07:41:37;;;;;;;;;;;;;;;;;;5325080;28;19957;-68
2021/12/27 07:44:09;;;;;;;;;;;;;;;;;;5325772;28;20006;-67
2021/12/27 07:46:41;;;;;;;;;;;;;;;;;;5323105;28;19910;-68
2021/12/27 07:49:13;;;;;;;;;;;;;;;;;;5325616;28;20339;-67
2021/12/27 07:51:44;;;;;;;;;;;;;;;;;;5324837;28;19904;-68
2021/12/27 07:54:15;;;;;;;;;;;;;;;;;;5324549;28;19973;-68
2021/12/27 07:56:46;;;;;;;;;;;;;;;;;;5323432;28;19904;-67
2021/12/27 07:59:17;;;;;;;;;;;;;;;;;;5324223;28;19953;-68
2021/12/27 08:01:48;;;;;;;;;;;;;;;;;;5322793;28;20537;-68
2021/12/27 08:04:19;;;;;;;;;;;;;;;;;;5323959;28;19910;-67
2021/12/27 08:06:50;;;;;;;;;;;;;;;;;;5322594;28;20318;-67
2021/12/27 08:09:21;;;;;;;;;;;;;;;;;;5323519;28;19911;-67
2021/12/27 08:11:52;;;;;;;;;;;;;;;;;;5323292;28;19904;-67
2021/12/27 08:14:23;;;;;;;;;;;;;;;;;;5322224;28;20425;-67
2021/12/27 08:16:54;;;;;;;;;;;;;;;;;;5322957;28;19903;-67
2021/12/27 08:19:26;;;;;;;;;;;;;;;;;;5323865;28;19949;-67
2021/12/27 08:21:57;;;;;;;;;;;;;;;;;;5322307;28;20400;-68
2021/12/27 08:24:28;;;;;;;;;;;;;;;;;;5323224;28;19998;-67
2021/12/27 08:27:02;;;;;;;;;;;;;;;;;;5322928;28;20455;-67
2021/12/27 08:29:33;;;;;;;;;;;;;;;;;;5322700;28;19991;-68
2021/12/27 08:32:04;;;;;;;;;;;;;;;;;;5322792;28;20011;-68
2021/12/27 08:34:35;;;;;;;;;;;;;;;;;;5323094;28;19999;-67
2021/12/27 08:37:06;;;;;;;;;;;;;;;;;;5321933;28;19904;-67
2021/12/27 08:39:38;;;;;;;;;;;;;;;;;;5322718;28;20003;-67
2021/12/27 08:42:10;;;;;;;;;;;;;;;;;;5322635;28;19904;-67
2021/12/27 08:44:41;;;;;;;;;;;;;;;;;;5323275;28;19910;-67
2021/12/27 08:47:14;;;;;;;;;;;;;;;;;;5323069;28;19919;-67
2021/12/27 08:49:45;;;;;;;;;;;;;;;;;;5321360;28;19972;-67
2021/12/27 08:52:16;;;;;;;;;;;;;;;;;;5322946;28;19916;-67
2021/12/27 08:54:47;;;;;;;;;;;;;;;;;;5322567;28;19912;-67
2021/12/27 08:57:18;;;;;;;;;;;;;;;;;;5322792;28;20304;-67
2021/12/27 08:59:49;;;;;;;;;;;;;;;;;;5329089;28;19904;-68
2021/12/27 09:02:20;;;;;;;;;;;;;;;;;;5329587;28;19947;-68
2021/12/27 09:04:51;;;;;;;;;;;;;;;;;;5311078;28;19904;-67
2021/12/27 09:07:23;;;;;;;;;;;;;;;;;;5328808;28;20317;-67
2021/12/27 09:09:54;;;;;;;;;;;;;;;;;;5328246;28;19904;-67
2021/12/27 09:12:25;;;;;;;;;;;;;;;;;;5330225;28;19927;-67
2021/12/27 09:14:56;;;;;;;;;;;;;;;;;;5329202;28;20321;-67
2021/12/27 09:17:27;;;;;;;;;;;;;;;;;;5328768;28;19903;-68
2021/12/27 09:19:58;;;;;;;;;;;;;;;;;;5329408;28;20338;-66
2021/12/27 09:22:29;;;;;;;;;;;;;;;;;;5330118;28;19947;-68
2021/12/27 09:25:00;;;;;;;;;;;;;;;;;;5328360;28;19969;-67
2021/12/27 09:27:31;;;;;;;;;;;;;;;;;;5329342;28;19918;-67
2021/12/27 09:30:02;;;;;;;;;;;;;;;;;;5328608;28;20403;-68
2021/12/27 09:32:33;;;;;;;;;;;;;;;;;;5329141;28;19931;-67
2021/12/27 09:35:04;;;;;;;;;;;;;;;;;;5329400;28;19912;-67
2021/12/27 09:37:36;;;;;;;;;;;;;;;;;;5329881;28;20274;-68
2021/12/27 09:40:07;;;;;;;;;;;;;;;;;;5328359;28;19911;-67
2021/12/27 09:42:38;;;;;;;;;;;;;;;;;;5329615;28;19926;-70
2021/12/27 09:45:09;;;;;;;;;;;;;;;;;;5330478;28;19969;-71
2021/12/27 09:47:40;;;;;;;;;;;;;;;;;;5330380;28;19915;-70
2021/12/27 09:50:12;;;;;;;;;;;;;;;;;;5330933;28;19908;-68
2021/12/27 09:52:43;;;;;;;;;;;;;;;;;;5329551;28;20025;-68
2021/12/27 09:55:14;;;;;;;;;;;;;;;;;;5330810;28;19959;-67
2021/12/27 09:57:45;;;;;;;;;;;;;;;;;;5329881;28;19904;-67
2021/12/27 10:00:17;;;;;;;;;;;;;;;;;;5329468;28;19910;-67
2021/12/27 10:02:48;;;;;;;;;;;;;;;;;;5330098;28;20044;-67
2021/12/27 10:05:20;;;;;;;;;;;;;;;;;;5330791;28;20366;-67
2021/12/27 10:07:51;;;;;;;;;;;;;;;;;;5329797;28;19904;-67
2021/12/27 10:10:22;;;;;;;;;;;;;;;;;;5327966;28;19990;-68
2021/12/27 10:12:53;;;;;;;;;;;;;;;;;;5326997;28;19908;-68
2021/12/27 10:15:24;;;;;;;;;;;;;;;;;;5326631;28;20397;-67
2021/12/27 10:17:55;;;;;;;;;;;;;;;;;;5326755;28;19919;-67
2021/12/27 10:20:28;;;;;;;;;;;;;;;;;;5326592;28;20739;-67
2021/12/27 10:22:59;;;;;;;;;;;;;;;;;;5326985;28;20316;-66
2021/12/27 10:25:30;;;;;;;;;;;;;;;;;;5327419;28;19919;-65
2021/12/27 10:28:02;;;;;;;;;;;;;;;;;;5326073;28;20374;-68
2021/12/27 10:30:33;;;;;;;;;;;;;;;;;;5327349;28;19908;-68
2021/12/27 10:33:04;;;;;;;;;;;;;;;;;;5326073;28;20426;-67
2021/12/27 10:35:35;;;;;;;;;;;;;;;;;;5324513;28;19954;-68
2021/12/27 10:38:06;;;;;;;;;;;;;;;;;;5325444;28;19904;-69
2021/12/27 10:40:37;;;;;;;;;;;;;;;;;;5325281;28;19935;-67
2021/12/27 10:43:08;;;;;;;;;;;;;;;;;;5325047;28;20426;-69
2021/12/27 10:45:39;;;;;;;;;;;;;;;;;;5325208;28;19930;-69
2021/12/27 10:48:10;;;;;;;;;;;;;;;;;;5325131;28;19965;-68
2021/12/27 10:50:41;;;;;;;;;;;;;;;;;;5324412;28;19908;-67
2021/12/27 10:53:15;;;;;;;;;;;;;;;;;;5325641;28;19923;-68
2021/12/27 10:55:48;;;;;;;;;;;;;;;;;;5324096;28;19950;-68
2021/12/27 10:58:19;;;;;;;;;;;;;;;;;;5325742;28;19903;-68
2021/12/27 11:00:50;;;;;;;;;;;;;;;;;;5323764;28;20411;-68
2021/12/27 11:03:21;;;;;;;;;;;;;;;;;;5323811;28;19956;-68
2021/12/27 11:05:52;;;;;;;;;;;;;;;;;;5324688;28;20374;-68
2021/12/27 11:08:23;;;;;;;;;;;;;;;;;;5325495;28;20003;-66
2021/12/27 11:10:54;;;;;;;;;;;;;;;;;;5324045;28;19911;-67
2021/12/27 11:13:26;;;;;;;;;;;;;;;;;;5324805;28;19904;-67
2021/12/27 11:15:57;;;;;;;;;;;;;;;;;;5324185;28;20326;-67
2021/12/27 11:18:28;;;;;;;;;;;;;;;;;;5324618;28;19991;-67
2021/12/27 11:20:59;;;;;;;;;;;;;;;;;;5324301;28;20346;-67
2021/12/27 11:23:30;;;;;;;;;;;;;;;;;;5324439;28;19903;-67
2021/12/27 11:26:01;;;;;;;;;;;;;;;;;;5324477;28;20009;-67
2021/12/27 11:28:32;;;;;;;;;;;;;;;;;;5324369;28;20002;-68
2021/12/27 11:31:03;;;;;;;;;;;;;;;;;;5323701;28;19910;-67
2021/12/27 11:33:35;;;;;;;;;;;;;;;;;;5324679;28;19903;-67
2021/12/27 11:36:06;;;;;;;;;;;;;;;;;;5324368;28;20320;-67
2021/12/27 11:38:37;;;;;;;;;;;;;;;;;;5323421;28;19926;-68
2021/12/27 11:41:08;;;;;;;;;;;;;;;;;;5324196;28;19956;-68
2021/12/27 11:43:39;;;;;;;;;;;;;;;;;;5324266;28;19904;-68
2021/12/27 11:46:10;;;;;;;;;;;;;;;;;;5323852;28;19904;-68
2021/12/27 11:48:41;;;;;;;;;;;;;;;;;;5323821;28;19955;-68
2021/12/27 11:51:13;;;;;;;;;;;;;;;;;;5324317;28;20347;-68
2021/12/27 11:53:44;;;;;;;;;;;;;;;;;;5322465;28;19912;-68
2021/12/27 11:56:15;;;;;;;;;;;;;;;;;;5324484;28;19903;-67
2021/12/27 11:58:46;;;;;;;;;;;;;;;;;;5323233;28;19908;-67
2021/12/27 12:01:17;;;;;;;;;;;;;;;;;;5324381;28;19911;-68
2021/12/27 12:03:48;;;;;;;;;;;;;;;;;;5323677;28;19903;-68
2021/12/27 12:06:19;;;;;;;;;;;;;;;;;;5322926;28;19903;-68
2021/12/27 12:08:51;;;;;;;;;;;;;;;;;;5323821;28;19931;-67
2021/12/27 12:11:22;;;;;;;;;;;;;;;;;;5324217;28;19946;-68
2021/12/27 12:13:53;;;;;;;;;;;;;;;;;;5322649;28;19937;-68
2021/12/27 12:16:26;;;;;;;;;;;;;;;;;;5313609;28;20425;-67
2021/12/27 12:18:57;;;;;;;;;;;;;;;;;;5314874;28;19916;-67
2021/12/27 12:21:29;;;;;;;;;;;;;;;;;;5322549;28;20435;-68
2021/12/27 12:24:00;;;;;;;;;;;;;;;;;;5322515;28;19911;-68
2021/12/27 12:26:31;;;;;;;;;;;;;;;;;;5323126;28;19912;-68
2021/12/27 12:29:02;;;;;;;;;;;;;;;;;;5319615;28;19911;-69
2021/12/27 12:31:34;;;;;;;;;;;;;;;;;;5306967;28;20283;-68
2021/12/27 12:34:05;;;;;;;;;;;;;;;;;;5299672;28;19916;-68
2021/12/27 12:36:36;;;;;;;;;;;;;;;;;;5301195;28;19919;-70
2021/12/27 12:39:07;;;;;;;;;;;;;;;;;;5302225;28;19964;-67
2021/12/27 12:41:38;;;;;;;;;;;;;;;;;;5301780;28;19957;-67
2021/12/27 12:44:09;;;;;;;;;;;;;;;;;;5303580;28;19911;-67
2021/12/27 12:46:41;;;;;;;;;;;;;;;;;;5302661;28;19904;-67
2021/12/27 12:49:12;;;;;;;;;;;;;;;;;;5302572;28;20006;-67
2021/12/27 12:51:45;;;;;;;;;;;;;;;;;;5302717;28;19995;-66
2021/12/27 12:54:16;;;;;;;;;;;;;;;;;;5302484;28;19970;-66
2021/12/27 12:56:47;;;;;;;;;;;;;;;;;;5301342;28;19943;-67
2021/12/27 12:59:18;;;;;;;;;;;;;;;;;;5303018;28;20321;-67
2021/12/27 13:01:49;;;;;;;;;;;;;;;;;;5302608;28;19911;-67
2021/12/27 13:04:21;;;;;;;;;;;;;;;;;;5302417;28;19904;-67
2021/12/27 13:06:52;;;;;;;;;;;;;;;;;;5302599;28;19944;-67
2021/12/27 13:09:23;;;;;;;;;;;;;;;;;;5302620;28;19908;-67
2021/12/27 13:11:54;;;;;;;;;;;;;;;;;;5302606;28;20308;-67
2021/12/27 13:14:25;;;;;;;;;;;;;;;;;;5303155;28;20270;-67
2021/12/27 13:16:56;;;;;;;;;;;;;;;;;;5301874;28;19912;-67
2021/12/27 13:19:27;;;;;;;;;;;;;;;;;;5303212;28;20010;-66
2021/12/27 13:21:58;;;;;;;;;;;;;;;;;;5302477;28;20243;-67
2021/12/27 13:24:29;;;;;;;;;;;;;;;;;;5301911;28;19949;-67
2021/12/27 13:27:02;;;;;;;;;;;;;;;;;;5302480;28;20263;-67
2021/12/27 13:29:33;;;;;;;;;;;;;;;;;;5302909;28;19904;-68
2021/12/27 13:32:04;;;;;;;;;;;;;;;;;;5301851;28;19915;-67
2021/12/27 13:34:35;;;;;;;;;;;;;;;;;;5303109;28;20024;-68
2021/12/27 13:37:06;;;;;;;;;;;;;;;;;;5300162;28;19911;-68
2021/12/27 13:39:37;;;;;;;;;;;;;;;;;;5301184;28;19904;-68
2021/12/27 13:42:08;;;;;;;;;;;;;;;;;;5301966;28;19910;-68
2021/12/27 13:44:39;;;;;;;;;;;;;;;;;;5300664;28;19910;-68
2021/12/27 13:47:12;;;;;;;;;;;;;;;;;;5305784;28;19919;-68
2021/12/27 13:49:43;;;;;;;;;;;;;;;;;;5304869;28;19912;-68
2021/12/27 13:52:18;;;;;;;;;;;;;;;;;;5304874;28;19927;-66
2021/12/27 13:54:50;;;;;;;;;;;;;;;;;;5305159;28;20354;-67
2021/12/27 13:57:21;;;;;;;;;;;;;;;;;;5318690;28;19960;-67
2021/12/27 13:59:53;;;;;;;;;;;;;;;;;;5325433;28;20355;-67
2021/12/27 14:02:24;;;;;;;;;;;;;;;;;;5326478;28;19904;-67
2021/12/27 14:04:55;;;;;;;;;;;;;;;;;;5325529;28;19904;-67
2021/12/27 14:07:26;;;;;;;;;;;;;;;;;;5325277;28;20376;-69
2021/12/27 14:09:57;;;;;;;;;;;;;;;;;;5326052;28;19911;-68
2021/12/27 14:12:31;;;;;;;;;;;;;;;;;;5325689;28;20232;-67
2021/12/27 14:15:02;;;;;;;;;;;;;;;;;;5325764;28;19946;-68
2021/12/27 14:17:33;;;;;;;;;;;;;;;;;;5325837;28;19946;-68
2021/12/27 14:20:04;;;;;;;;;;;;;;;;;;5325002;28;19929;-68
2021/12/27 14:22:35;;;;;;;;;;;;;;;;;;5326296;28;19904;-68
2021/12/27 14:25:06;;;;;;;;;;;;;;;;;;5325511;28;20586;-68
2021/12/27 14:27:37;;;;;;;;;;;;;;;;;;5324807;28;19903;-68
2021/12/27 14:30:08;;;;;;;;;;;;;;;;;;5325687;28;19904;-68
2021/12/27 14:32:39;;;;;;;;;;;;;;;;;;5325643;28;19904;-68
2021/12/27 14:35:10;;;;;;;;;;;;;;;;;;5325419;28;19916;-68
2021/12/27 14:37:41;;;;;;;;;;;;;;;;;;5325348;28;19911;-68
2021/12/27 14:40:13;;;;;;;;;;;;;;;;;;5325796;28;20343;-68
2021/12/27 14:42:44;;;;;;;;;;;;;;;;;;5324313;28;19960;-68
2021/12/27 14:45:15;;;;;;;;;;;;;;;;;;5325859;28;20271;-68
2021/12/27 14:47:46;;;;;;;;;;;;;;;;;;5324371;28;19998;-67
2021/12/27 14:50:17;;;;;;;;;;;;;;;;;;5325657;28;19915;-68
2021/12/27 14:52:48;;;;;;;;;;;;;;;;;;5324918;28;19990;-68
2021/12/27 14:55:19;;;;;;;;;;;;;;;;;;5324248;28;20045;-68
2021/12/27 14:57:50;;;;;;;;;;;;;;;;;;5324601;28;20476;-68
2021/12/27 15:00:21;;;;;;;;;;;;;;;;;;5325602;28;19950;-67
2021/12/27 15:02:52;;;;;;;;;;;;;;;;;;5324112;28;19907;-67
2021/12/27 15:05:24;;;;;;;;;;;;;;;;;;5325221;28;19908;-67
2021/12/27 15:07:55;;;;;;;;;;;;;;;;;;5324439;28;20023;-67
2021/12/27 15:10:26;;;;;;;;;;;;;;;;;;5324671;28;20002;-68
2021/12/27 15:12:57;;;;;;;;;;;;;;;;;;5324606;28;20623;-68
2021/12/27 15:15:28;;;;;;;;;;;;;;;;;;5324832;28;20378;-69
2021/12/27 15:17:59;;;;;;;;;;;;;;;;;;5323983;28;20002;-68
2021/12/27 15:20:33;;;;;;;;;;;;;;;;;;5325245;28;19907;-68
2021/12/27 15:23:04;;;;;;;;;;;;;;;;;;5323322;28;20393;-68
2021/12/27 15:25:35;;;;;;;;;;;;;;;;;;5324934;28;19943;-68
2021/12/27 15:28:06;;;;;;;;;;;;;;;;;;5324231;28;20350;-68
2021/12/27 15:30:37;;;;;;;;;;;;;;;;;;5323930;28;19903;-69
2021/12/27 15:33:08;;;;;;;;;;;;;;;;;;5324271;28;19911;-69
2021/12/27 15:35:39;;;;;;;;;;;;;;;;;;5323272;28;20015;-68
2021/12/27 15:38:10;;;;;;;;;;;;;;;;;;5322536;28;19978;-68
2021/12/27 15:40:41;;;;;;;;;;;;;;;;;;5323904;28;19904;-69
2021/12/27 15:43:12;;;;;;;;;;;;;;;;;;5324560;28;19939;-69
2021/12/27 15:45:43;;;;;;;;;;;;;;;;;;5322413;28;20011;-69
2021/12/27 15:48:15;;;;;;;;;;;;;;;;;;5323296;28;19922;-69
2021/12/27 15:50:46;;;;;;;;;;;;;;;;;;5322899;28;19904;-69
2021/12/27 15:53:17;;;;;;;;;;;;;;;;;;5324036;28;19904;-69
2021/12/27 15:55:48;;;;;;;;;;;;;;;;;;5323635;28;19912;-69
2021/12/27 15:58:19;;;;;;;;;;;;;;;;;;5323750;28;19911;-68
2021/12/27 16:00:50;;;;;;;;;;;;;;;;;;5323148;28;19949;-69
2021/12/27 16:03:21;;;;;;;;;;;;;;;;;;5324021;28;19929;-69
2021/12/27 16:05:52;;;;;;;;;;;;;;;;;;5323142;28;19903;-69
2021/12/27 16:08:23;;;;;;;;;;;;;;;;;;5323406;28;19908;-68
2021/12/27 16:10:59;;;;;;;;;;;;;;;;;;5323413;28;20256;-69
2021/12/27 16:13:30;;;;;;;;;;;;;;;;;;5322841;28;19911;-68
2021/12/27 16:16:01;;;;;;;;;;;;;;;;;;5323425;28;19916;-68
2021/12/27 16:18:32;;;;;;;;;;;;;;;;;;5324085;28;19931;-68
2021/12/27 16:21:03;;;;;;;;;;;;;;;;;;5322605;28;19911;-68
2021/12/27 16:23:35;;;;;;;;;;;;;;;;;;5323875;28;19994;-67
2021/12/27 16:26:07;;;;;;;;;;;;;;;;;;5322512;28;20369;-68
2021/12/27 16:28:38;;;;;;;;;;;;;;;;;;5322981;28;19908;-68
2021/12/27 16:31:09;;;;;;;;;;;;;;;;;;5323783;28;20269;-68
2021/12/27 16:33:40;;;;;;;;;;;;;;;;;;5322395;28;19956;-68
2021/12/27 16:36:11;;;;;;;;;;;;;;;;;;5323834;28;19908;-68
2021/12/27 16:38:42;;;;;;;;;;;;;;;;;;5323160;28;20393;-67
2021/12/27 16:41:13;;;;;;;;;;;;;;;;;;5322418;28;19903;-68
2021/12/27 16:43:44;;;;;;;;;;;;;;;;;;5323200;28;19965;-68
2021/12/27 16:46:15;;;;;;;;;;;;;;;;;;5323736;28;19903;-68
2021/12/27 16:48:46;;;;;;;;;;;;;;;;;;5322104;28;20273;-68
2021/12/27 16:51:18;;;;;;;;;;;;;;;;;;5323478;28;19907;-66
2021/12/27 16:53:49;;;;;;;;;;;;;;;;;;5322423;28;19904;-68
2021/12/27 16:56:20;;;;;;;;;;;;;;;;;;5322781;28;20270;-67
2021/12/27 16:58:51;;;;;;;;;;;;;;;;;;5322920;28;19904;-67
2021/12/27 17:01:22;;;;;;;;;;;;;;;;;;5322670;28;19947;-67
2021/12/27 17:03:54;;;;;;;;;;;;;;;;;;5322738;28;20300;-67
2021/12/27 17:06:25;;;;;;;;;;;;;;;;;;5323118;28;19999;-67
2021/12/27 17:08:57;;;;;;;;;;;;;;;;;;5322222;28;20430;-66
2021/12/27 17:11:28;;;;;;;;;;;;;;;;;;5323228;28;19904;-67
2021/12/27 17:13:59;;;;;;;;;;;;;;;;;;5322823;28;19908;-67